Time;durP1;ratioP1;P1;durP2;ratioP2;P2;SDS_P1;SDS_P2;PMS_P1;PMS_P2;Temp;Humidity;BMP_temperature;BMP_pressure;BME280_temperature;BME280_humidity;BME280_pressure;Samples;Min_cycle;Max_cycle;Signal;HPM_P1;HPM_P2
2022/10/31 00:00:50;;;;;;;1999.90;999.90;;;16.70;99.90;;;;;;5141907;27;20035;-89
2022/10/31 00:03:17;;;;;;;1999.90;999.90;;;16.70;99.90;;;;;;5118703;27;20043;-89
2022/10/31 00:05:44;;;;;;;1999.90;999.90;;;16.70;99.90;;;;;;5144775;27;20039;-86
2022/10/31 00:08:10;;;;;;;;;;;16.70;99.90;;;;;;5143239;27;20043;-81
2022/10/31 00:10:40;;;;;;;1999.90;999.90;;;16.80;99.90;;;;;;5109830;27;19988;-88
2022/10/31 00:13:06;;;;;;;1999.90;999.90;;;16.70;99.90;;;;;;5142221;27;20126;-89
2022/10/31 00:15:36;;;;;;;1999.90;999.90;;;16.60;99.90;;;;;;5136319;27;20052;-89
2022/10/31 00:18:03;;;;;;;1999.90;999.90;;;16.70;99.90;;;;;;5139921;27;20079;-89
2022/10/31 00:20:29;;;;;;;1999.90;999.90;;;16.70;99.90;;;;;;5142094;27;20078;-87
2022/10/31 00:22:58;;;;;;;1999.90;999.90;;;16.70;1.00;;;;;;5145280;27;20097;-90
2022/10/31 00:25:24;;;;;;;1999.90;999.90;;;16.70;99.90;;;;;;5110829;27;20043;-88
2022/10/31 00:27:49;;;;;;;1999.90;999.90;;;16.60;99.90;;;;;;5133741;27;20035;-89
2022/10/31 00:30:15;;;;;;;1999.90;999.90;;;16.60;99.90;;;;;;5146354;27;20122;-89
2022/10/31 00:32:41;;;;;;;1999.90;999.90;;;16.60;1.00;;;;;;5148220;27;20099;-86
2022/10/31 00:35:06;;;;;;;1999.90;999.90;;;16.60;1.00;;;;;;5126357;27;20047;-88
2022/10/31 00:37:32;;;;;;;1999.90;999.90;;;16.60;1.00;;;;;;5148054;27;20068;-84
2022/10/31 00:39:58;;;;;;;1999.90;999.90;;;16.60;1.00;;;;;;5141809;27;20069;-89
2022/10/31 00:42:24;;;;;;;1999.90;999.90;;;16.50;1.00;;;;;;5140467;27;20181;-89
2022/10/31 00:44:50;;;;;;;1999.90;999.90;;;16.50;1.00;;;;;;5125154;27;20490;-88
2022/10/31 00:47:15;;;;;;;1999.90;999.90;;;16.40;1.00;;;;;;5137591;27;20100;-89
2022/10/31 00:49:41;;;;;;;1999.90;999.90;;;16.50;31.60;;;;;;5144894;27;20078;-88
2022/10/31 00:52:07;;;;;;;1999.90;999.90;;;16.50;52.40;;;;;;5129367;27;20103;-88
2022/10/31 00:54:33;;;;;;;1999.90;999.90;;;16.50;99.90;;;;;;5108001;27;20046;-87
2022/10/31 00:56:58;;;;;;;1999.90;999.90;;;16.50;66.80;;;;;;5128621;27;20133;-89
2022/10/31 00:59:24;;;;;;;1999.90;999.90;;;16.60;53.00;;;;;;5147431;27;20050;-85
2022/10/31 01:01:50;;;;;;;1999.90;999.90;;;16.40;53.10;;;;;;5140427;27;20411;-86
2022/10/31 01:04:15;;;;;;;1999.90;999.90;;;16.40;99.90;;;;;;5141087;27;20062;-88
2022/10/31 01:06:41;;;;;;;1999.90;999.90;;;16.40;99.90;;;;;;5133070;27;20073;-87
2022/10/31 01:09:07;;;;;;;1999.90;999.90;;;16.40;99.90;;;;;;5136171;27;20118;-88
2022/10/31 01:11:33;;;;;;;1999.90;999.90;;;16.40;99.90;;;;;;5147458;27;20042;-89
2022/10/31 01:13:59;;;;;;;1999.90;999.90;;;16.40;99.90;;;;;;5142292;27;21648;-89
2022/10/31 01:16:26;;;;;;;1999.90;999.90;;;16.40;99.90;;;;;;5141339;27;20043;-88
2022/10/31 01:18:52;;;;;;;1255.05;509.25;;;16.50;99.90;;;;;;5143730;27;20050;-89
2022/10/31 01:21:27;;;;;;;1617.78;754.42;;;16.50;99.90;;;;;;5115573;27;20069;-89
2022/10/31 01:23:55;;;;;;;1999.90;999.90;;;16.50;1.00;;;;;;5121122;27;20399;-89
2022/10/31 01:26:22;;;;;;;1999.90;999.90;;;16.50;1.00;;;;;;5141209;27;20495;-89
2022/10/31 01:28:51;;;;;;;1999.90;999.90;;;16.50;1.00;;;;;;5135803;27;20495;-88
2022/10/31 01:31:19;;;;;;;1999.90;999.90;;;16.50;1.00;;;;;;5143907;27;20054;-89
2022/10/31 01:33:48;;;;;;;1999.90;999.90;;;16.50;1.00;;;;;;5103893;27;20035;-89
2022/10/31 01:36:23;;;;;;;1999.90;999.90;;;16.60;1.00;;;;;;5141270;27;20046;-89
2022/10/31 01:38:50;;;;;;;1999.90;999.90;;;16.60;28.80;;;;;;5117999;28;20053;-90
2022/10/31 01:41:19;;;;;;;1662.05;317.85;;;16.60;99.90;;;;;;5127747;27;20053;-89
2022/10/31 01:44:14;;;;;;;1999.90;999.90;;;16.70;99.90;;;;;;5140088;27;20043;-88
2022/10/31 01:46:49;;;;;;;1999.90;999.90;;;16.60;99.90;;;;;;5107573;27;20412;-89
2022/10/31 01:49:28;;;;;;;1999.90;999.90;;;16.60;99.90;;;;;;5125866;27;20058;-89
2022/10/31 01:52:07;;;;;;;1999.90;999.90;;;16.60;99.90;;;;;;5092166;27;20088;-88
2022/10/31 01:54:39;;;;;;;1999.90;999.90;;;16.60;99.90;;;;;;5126615;27;20054;-85
2022/10/31 01:57:07;;;;;;;1999.90;999.90;;;16.50;99.90;;;;;;5148129;27;20046;-89
2022/10/31 01:59:35;;;;;;;1999.90;999.90;;;16.50;99.90;;;;;;5127178;27;20156;-86
2022/10/31 02:02:01;;;;;;;1999.90;999.90;;;16.50;99.90;;;;;;5117863;27;20740;-89
2022/10/31 02:04:29;;;;;;;1999.90;999.90;;;16.50;99.90;;;;;;5123097;27;20050;-89
2022/10/31 02:07:10;;;;;;;1999.90;999.90;;;16.40;99.90;;;;;;5134175;27;20043;-86
2022/10/31 02:09:37;;;;;;;1999.90;999.90;;;16.40;99.90;;;;;;5137274;27;20158;-89
2022/10/31 02:12:04;;;;;;;1999.90;999.90;;;16.40;99.90;;;;;;5139964;27;20061;-89
2022/10/31 02:14:31;;;;;;;1999.90;999.90;;;16.40;1.00;;;;;;5100949;27;20047;-87
2022/10/31 02:16:57;;;;;;;1999.90;999.90;;;16.40;1.00;;;;;;5143133;27;20043;-89
2022/10/31 02:19:35;;;;;;;1999.90;999.90;;;16.40;1.00;;;;;;5150999;27;20059;-88
2022/10/31 02:22:21;;;;;;;1582.40;520.38;;;16.40;1.00;;;;;;5128243;27;20043;-87
2022/10/31 02:25:13;;;;;;;1999.90;999.90;;;16.40;45.40;;;;;;5147851;27;20047;-89
2022/10/31 02:27:57;;;;;;;1771.70;762.53;;;16.40;80.50;;;;;;5143270;27;20047;-89
2022/10/31 02:30:27;;;;;;;1999.90;999.90;;;16.40;43.20;;;;;;5140303;27;20050;-89
2022/10/31 02:33:20;;;;;;;1999.90;999.90;;;16.30;58.50;;;;;;5149393;27;20042;-90
2022/10/31 02:36:04;;;;;;;1999.90;999.90;;;16.30;99.90;;;;;;5128109;27;20035;-89
2022/10/31 02:38:44;;;;;;;1999.90;999.90;;;16.20;99.90;;;;;;5144747;27;20159;-89
2022/10/31 02:41:27;;;;;;;1999.90;999.90;;;16.30;99.90;;;;;;5143058;27;20447;-90
2022/10/31 02:44:22;;;;;;;1999.90;999.90;;;16.20;99.90;;;;;;5147187;27;20085;-88
2022/10/31 02:47:10;;;;;;;1999.90;999.90;;;16.20;99.90;;;;;;5143745;27;20511;-89
2022/10/31 02:49:43;;;;;;;1999.90;999.90;;;16.20;99.90;;;;;;5147050;27;20054;-85
2022/10/31 02:52:25;;;;;;;1999.90;999.90;;;16.20;99.90;;;;;;5142112;27;20509;-89
2022/10/31 02:54:51;;;;;;;1999.90;999.90;;;16.20;99.90;;;;;;5128164;27;20076;-89
2022/10/31 02:57:28;;;;;;;1999.90;999.90;;;16.20;99.90;;;;;;5130816;27;20055;-88
2022/10/31 03:00:02;;;;;;;1999.90;999.90;;;16.20;99.90;;;;;;5135964;27;20742;-87
2022/10/31 03:02:52;;;;;;;1999.90;999.90;;;16.20;99.90;;;;;;5112966;27;20053;-88
2022/10/31 03:05:23;;;;;;;1999.90;999.90;;;16.20;99.90;;;;;;5133987;27;20120;-89
2022/10/31 03:08:12;;;;;;;1999.90;999.90;;;16.20;99.90;;;;;;5145057;27;20046;-88
2022/10/31 03:11:04;;;;;;;1999.90;999.90;;;16.20;99.90;;;;;;5129738;27;20050;-89
2022/10/31 03:13:46;;;;;;;1999.90;999.90;;;16.20;99.90;;;;;;5149644;27;20123;-88
2022/10/31 03:16:27;;;;;;;1999.90;999.90;;;16.10;99.90;;;;;;5144006;27;20126;-82
2022/10/31 03:19:13;;;;;;;1999.90;999.90;;;16.00;99.90;;;;;;5128185;27;20081;-88
2022/10/31 03:21:43;;;;;;;1999.90;999.90;;;15.90;99.90;;;;;;5146609;27;20046;-88
2022/10/31 03:24:11;;;;;;;1999.90;999.90;;;15.90;99.90;;;;;;5121536;27;20089;-88
2022/10/31 03:26:41;;;;;;;1999.90;999.90;;;15.90;1.00;;;;;;5142788;27;20034;-81
2022/10/31 03:29:10;;;;;;;1999.90;999.90;;;16.60;1.00;;;;;;5148919;27;20050;-88
2022/10/31 03:31:50;;;;;;;1781.80;760.92;;;16.00;1.00;;;;;;5135127;27;20050;-88
2022/10/31 03:34:19;;;;;;;1999.90;999.90;;;15.90;1.00;;;;;;5150116;27;20402;-87
2022/10/31 03:36:47;;;;;;;1999.90;999.90;;;15.90;41.20;;;;;;5144872;27;20428;-88
2022/10/31 03:39:17;;;;;;;1999.90;999.90;;;16.00;21.80;;;;;;5146743;27;20085;-89
2022/10/31 03:41:49;;;;;;;1638.07;756.25;;;15.90;33.80;;;;;;5144814;27;20046;-86
2022/10/31 03:44:18;;;;;;;1999.90;999.90;;;15.80;47.40;;;;;;5127606;27;20129;-88
2022/10/31 03:46:45;;;;;;;1999.90;999.90;;;15.80;74.90;;;;;;5147676;27;20051;-82
2022/10/31 03:49:12;;;;;;;1999.90;999.90;;;15.80;92.50;;;;;;5145357;27;20081;-86
2022/10/31 03:51:55;;;;;;;1999.90;999.90;;;15.90;98.10;;;;;;5134287;27;20112;-88
2022/10/31 03:54:45;;;;;;;1999.90;999.90;;;15.90;99.90;;;;;;5137413;27;20425;-88
2022/10/31 03:57:35;;;;;;;1999.90;999.90;;;15.80;99.90;;;;;;5123629;27;20043;-88
2022/10/31 04:00:19;;;;;;;1999.90;999.90;;;15.80;99.90;;;;;;5145940;27;20445;-82
2022/10/31 04:02:59;;;;;;;1999.90;999.90;;;15.80;99.90;;;;;;5142522;27;20030;-88
2022/10/31 04:05:24;;;;;;;1999.90;999.90;;;15.80;99.90;;;;;;5139696;27;20113;-85
2022/10/31 04:07:54;;;;;;;1575.57;753.72;;;15.90;99.90;;;;;;5107750;27;20187;-88
2022/10/31 04:10:22;;;;;;;1999.90;999.90;;;15.80;99.90;;;;;;5148240;27;20035;-87
2022/10/31 04:12:55;;;;;;;1999.90;999.90;;;15.80;99.90;;;;;;5135521;27;20043;-88
2022/10/31 04:15:23;;;;;;;1697.35;764.08;;;16.10;99.90;;;;;;5127644;27;20407;-89
2022/10/31 04:17:51;;;;;;;1999.90;999.90;;;15.80;99.90;;;;;;5142326;27;20510;-88
2022/10/31 04:20:17;;;;;;;1999.90;999.90;;;15.80;99.90;;;;;;5143009;27;20047;-88
2022/10/31 04:22:44;;;;;;;1999.90;999.90;;;15.70;99.90;;;;;;5104851;27;20047;-81
2022/10/31 04:25:09;;;;;;;1999.90;999.90;;;15.80;99.90;;;;;;5150957;27;20502;-88
2022/10/31 04:27:35;;;;;;;1999.90;999.90;;;15.60;99.90;;;;;;5135472;27;20065;-88
2022/10/31 04:30:01;;;;;;;1999.90;999.90;;;15.70;99.90;;;;;;5140242;27;20125;-89
2022/10/31 04:32:26;;;;;;;1999.90;999.90;;;15.60;99.90;;;;;;5120395;27;20480;-89
2022/10/31 04:34:52;;;;;;;1999.90;999.90;;;15.70;99.90;;;;;;5141665;27;20461;-89
2022/10/31 04:37:17;;;;;;;1999.90;999.90;;;15.60;99.90;;;;;;5128879;27;20441;-87
2022/10/31 04:39:43;;;;;;;1999.90;999.90;;;15.50;99.90;;;;;;5147479;27;20060;-89
2022/10/31 04:42:09;;;;;;;1999.90;999.90;;;15.40;99.90;;;;;;5127095;27;20114;-89
2022/10/31 04:44:35;;;;;;;1999.90;999.90;;;15.40;99.90;;;;;;5141442;27;20042;-89
2022/10/31 04:47:00;;;;;;;1999.90;999.90;;;15.40;99.90;;;;;;5143571;27;20051;-89
2022/10/31 04:49:26;;;;;;;1999.90;999.90;;;15.40;99.90;;;;;;5142722;27;20035;-88
2022/10/31 04:51:51;;;;;;;1999.90;999.90;;;15.30;99.90;;;;;;5112795;27;20047;-88
2022/10/31 04:54:17;;;;;;;1999.90;999.90;;;15.20;99.90;;;;;;5120192;27;20035;-88
2022/10/31 04:56:43;;;;;;;1999.90;999.90;;;15.30;99.90;;;;;;5127194;27;20035;-88
2022/10/31 04:59:08;;;;;;;1999.90;999.90;;;15.20;99.90;;;;;;5135697;27;20047;-84
2022/10/31 05:01:34;;;;;;;1999.90;999.90;;;15.40;1.00;;;;;;5147514;27;20050;-87
2022/10/31 05:03:59;;;;;;;1999.90;999.90;;;15.10;1.00;;;;;;5119982;27;20091;-89
2022/10/31 05:06:25;;;;;;;1999.90;999.90;;;15.10;1.00;;;;;;5141975;27;20088;-85
2022/10/31 05:08:51;;;;;;;1999.90;999.90;;;15.10;1.00;;;;;;5133647;27;20034;-88
2022/10/31 05:11:16;;;;;;;1999.90;999.90;;;15.00;1.00;;;;;;5147381;27;20099;-86
2022/10/31 05:13:42;;;;;;;1999.90;999.90;;;15.00;1.00;;;;;;5135941;27;20059;-88
2022/10/31 05:16:08;;;;;;;1999.90;999.90;;;14.90;1.00;;;;;;5133129;27;20043;-88
2022/10/31 05:18:33;;;;;;;1999.90;999.90;;;14.90;1.00;;;;;;5136572;27;20043;-89
2022/10/31 05:20:59;;;;;;;1999.90;999.90;;;14.90;1.00;;;;;;5142008;27;20098;-89
2022/10/31 05:23:24;;;;;;;1999.90;999.90;;;14.90;1.00;;;;;;5123688;27;20036;-89
2022/10/31 05:25:50;;;;;;;1999.90;999.90;;;14.80;1.00;;;;;;5128296;27;20051;-89
2022/10/31 05:28:16;;;;;;;1999.90;999.90;;;14.90;1.00;;;;;;5147116;27;20054;-90
2022/10/31 05:30:41;;;;;;;1999.90;999.90;;;14.80;1.00;;;;;;5115171;27;20053;-88
2022/10/31 05:33:07;;;;;;;1999.90;999.90;;;14.80;18.60;;;;;;5120989;27;20043;-91
2022/10/31 05:35:33;;;;;;;1999.90;999.90;;;14.80;24.70;;;;;;5130851;27;20160;-91
2022/10/31 05:37:59;;;;;;;1999.90;999.90;;;14.80;31.50;;;;;;5122563;27;20043;-91
2022/10/31 05:40:26;;;;;;;1999.90;999.90;;;14.80;59.50;;;;;;5137868;27;20043;-90
2022/10/31 05:42:53;;;;;;;1999.90;999.90;;;14.70;65.90;;;;;;5149091;27;20070;-89
2022/10/31 05:45:20;;;;;;;1999.90;999.90;;;14.80;96.60;;;;;;5124441;27;20504;-90
2022/10/31 05:48:00;;;;;;;1999.90;999.90;;;14.80;99.90;;;;;;5126852;27;20122;-90
2022/10/31 05:50:28;;;;;;;1999.90;999.90;;;14.90;99.90;;;;;;5144016;27;20399;-91
2022/10/31 05:52:59;;;;;;;1999.90;999.90;;;14.90;99.90;;;;;;5136793;27;20088;-91
2022/10/31 05:55:25;;;;;;;1999.90;999.90;;;14.80;99.90;;;;;;5155596;27;20041;-92
2022/10/31 05:57:52;;;;;;;1999.90;999.90;;;14.80;99.90;;;;;;5140198;27;20046;-93
2022/10/31 06:00:19;;;;;;;1999.90;999.90;;;14.80;99.90;;;;;;5152589;27;20051;-92
2022/10/31 06:02:44;;;;;;;1999.90;999.90;;;14.80;99.90;;;;;;5148510;27;20038;-93
2022/10/31 06:05:11;;;;;;;1999.90;999.90;;;14.90;99.90;;;;;;5153315;27;20057;-92
2022/10/31 06:07:36;;;;;;;1999.90;999.90;;;14.70;99.90;;;;;;5143878;27;20050;-89
2022/10/31 06:10:05;;;;;;;1999.90;999.90;;;14.60;99.90;;;;;;5101005;27;20034;-94
2022/10/31 06:12:31;;;;;;;1999.90;999.90;;;14.40;99.90;;;;;;5125093;27;20046;-94
2022/10/31 06:14:57;;;;;;;1999.90;999.90;;;14.60;99.90;;;;;;5128666;27;20509;-92
2022/10/31 06:17:23;;;;;;;1999.90;999.90;;;14.60;99.90;;;;;;5138410;27;20058;-94
2022/10/31 06:19:48;;;;;;;1999.90;999.90;;;14.60;99.90;;;;;;5136625;27;20046;-87
2022/10/31 06:22:14;;;;;;;1999.90;999.90;;;14.60;99.90;;;;;;5142722;27;20047;-92
2022/10/31 06:24:40;;;;;;;1999.90;999.90;;;14.60;99.90;;;;;;5114832;27;20091;-91
2022/10/31 06:27:06;;;;;;;1999.90;999.90;;;14.70;99.90;;;;;;5117845;27;20086;-92
2022/10/31 06:29:32;;;;;;;1999.90;999.90;;;14.60;99.90;;;;;;5129013;27;20046;-90
2022/10/31 06:31:58;;;;;;;1999.90;999.90;;;14.60;99.90;;;;;;5116857;27;20050;-94
2022/10/31 06:34:23;;;;;;;1999.90;999.90;;;14.60;99.90;;;;;;5132784;27;20046;-92
2022/10/31 06:36:49;;;;;;;1999.90;999.90;;;14.60;99.90;;;;;;5148829;27;20491;-91
2022/10/31 06:39:15;;;;;;;1646.50;757.38;;;14.60;99.90;;;;;;5122162;27;20062;-93
2022/10/31 06:41:41;;;;;;;1999.90;999.90;;;14.60;99.90;;;;;;5129858;27;20043;-93
2022/10/31 06:44:07;;;;;;;1999.90;999.90;;;14.60;99.90;;;;;;5145302;27;20039;-94
2022/10/31 06:46:33;;;;;;;1999.90;999.90;;;14.70;99.90;;;;;;5120195;27;20039;-93
2022/10/31 06:48:59;;;;;;;1999.90;999.90;;;14.80;99.90;;;;;;5141149;27;20414;-95
2022/10/31 06:51:25;;;;;;;1999.90;999.90;;;14.80;99.90;;;;;;5129891;27;20053;-93
2022/10/31 06:53:51;;;;;;;1999.90;999.90;;;14.80;99.90;;;;;;5116430;27;20043;-93
2022/10/31 06:56:16;;;;;;;1999.90;999.90;;;14.90;99.90;;;;;;5130802;27;20067;-93
2022/10/31 06:58:42;;;;;;;1999.90;999.90;;;15.00;99.90;;;;;;5133155;27;20043;-93
2022/10/31 07:01:08;;;;;;;1999.90;999.90;;;15.10;99.90;;;;;;5137373;27;20057;-94
2022/10/31 07:03:34;;;;;;;1816.20;777.10;;;15.20;99.90;;;;;;5120303;27;20047;-95
2022/10/31 07:05:59;;;;;;;1999.90;999.90;;;15.30;99.90;;;;;;5114505;27;20046;-94
2022/10/31 07:08:25;;;;;;;1919.43;777.78;;;15.40;99.90;;;;;;5134621;27;20072;-93
2022/10/31 07:10:54;;;;;;;1999.90;999.90;;;15.40;99.90;;;;;;5135869;27;20386;-94
2022/10/31 07:13:25;;;;;;;1999.90;804.72;;;15.50;99.90;;;;;;5116915;27;20479;-95
2022/10/31 07:15:53;;;;;;;1999.90;999.90;;;15.70;99.90;;;;;;5117538;27;20113;-94
2022/10/31 07:18:20;;;;;;;1999.90;999.90;;;15.70;99.90;;;;;;5149389;27;20050;-95
2022/10/31 07:20:45;;;;;;;1999.90;999.90;;;15.60;99.90;;;;;;5134611;27;20054;-93
2022/10/31 07:23:11;;;;;;;1999.90;999.90;;;15.60;99.90;;;;;;5126801;27;20055;-95
2022/10/31 07:25:41;;;;;;;1999.90;999.90;;;15.60;99.90;;;;;;5148706;27;20047;-94
2022/10/31 07:28:07;;;;;;;1999.90;999.90;;;15.60;99.90;;;;;;5144568;27;20096;-93
2022/10/31 07:30:33;;;;;;;1999.90;999.90;;;15.60;99.90;;;;;;5125844;27;20047;-93
2022/10/31 07:32:59;;;;;;;1999.90;999.90;;;15.80;99.90;;;;;;5137332;27;20046;-91
2022/10/31 07:35:26;;;;;;;1738.72;757.15;;;15.70;99.90;;;;;;5134481;27;20043;-91
2022/10/31 07:37:52;;;;;;;1999.90;999.90;;;15.80;99.90;;;;;;5148543;27;20039;-93
2022/10/31 07:40:19;;;;;;;1647.80;754.05;;;15.90;99.90;;;;;;5134937;27;20513;-92
2022/10/31 07:42:48;;;;;;;1999.90;999.90;;;15.90;99.90;;;;;;5154316;27;20043;-93
2022/10/31 07:45:17;;;;;;;1999.90;999.90;;;16.10;99.90;;;;;;5145812;27;20058;-94
2022/10/31 07:47:50;;;;;;;1999.90;999.90;;;16.10;99.90;;;;;;5128125;27;20043;-92
2022/10/31 07:50:22;;;;;;;1999.90;999.90;;;16.10;99.90;;;;;;5134355;27;20047;-94
2022/10/31 07:52:48;;;;;;;1999.90;999.90;;;16.10;99.90;;;;;;5134586;27;20073;-88
2022/10/31 07:55:14;;;;;;;1999.90;999.90;;;16.20;99.90;;;;;;5133946;27;20046;-92
2022/10/31 07:57:40;;;;;;;1999.90;999.90;;;16.20;99.90;;;;;;5137431;27;20078;-93
2022/10/31 08:00:08;;;;;;;1805.28;770.40;;;16.20;99.90;;;;;;5132601;27;20088;-92
2022/10/31 08:02:34;;;;;;;1083.90;504.35;;;16.30;99.90;;;;;;5134802;27;20053;-93
2022/10/31 08:05:01;;;;;;;1999.90;999.90;;;16.30;99.90;;;;;;5118067;27;20043;-94
2022/10/31 08:07:28;;;;;;;1999.90;999.90;;;16.30;99.90;;;;;;5114993;27;20103;-93
2022/10/31 08:09:54;;;;;;;1999.90;999.90;;;16.30;99.90;;;;;;5121161;27;20055;-93
2022/10/31 08:12:20;;;;;;;1999.90;999.90;;;16.40;99.90;;;;;;5134095;27;20043;-92
2022/10/31 08:14:46;;;;;;;1999.90;999.90;;;16.50;99.90;;;;;;5114616;27;20118;-91
2022/10/31 08:17:12;;;;;;;1999.90;999.90;;;16.50;99.90;;;;;;5136353;27;20043;-90
2022/10/31 08:19:38;;;;;;;1999.90;999.90;;;16.60;99.90;;;;;;5140061;27;20054;-92
2022/10/31 08:22:03;;;;;;;1999.90;999.90;;;16.60;99.90;;;;;;5133000;27;20061;-91
2022/10/31 08:24:29;;;;;;;1727.65;758.78;;;16.70;99.90;;;;;;5144594;27;20510;-89
2022/10/31 08:26:55;;;;;;;1999.90;999.90;;;16.70;99.90;;;;;;5133641;27;20069;-91
2022/10/31 08:29:20;;;;;;;1999.90;999.90;;;16.90;99.90;;;;;;5133408;27;20054;-91
2022/10/31 08:31:46;;;;;;;1999.90;999.90;;;16.80;99.90;;;;;;5115901;27;20043;-92
2022/10/31 08:34:12;;;;;;;1999.90;999.90;;;16.90;99.90;;;;;;5134266;27;20051;-92
2022/10/31 08:36:37;;;;;;;1999.90;999.90;;;16.80;99.90;;;;;;5138105;27;20096;-91
2022/10/31 08:39:03;;;;;;;1999.90;999.90;;;16.90;99.90;;;;;;5155745;27;20066;-90
2022/10/31 08:41:30;;;;;;;1999.90;999.90;;;17.40;99.90;;;;;;5132762;27;20038;-89
2022/10/31 08:43:55;;;;;;;1999.90;999.90;;;17.10;99.90;;;;;;5123995;27;20051;-92
2022/10/31 08:46:21;;;;;;;1999.90;999.90;;;17.10;99.90;;;;;;5118853;27;20114;-91
2022/10/31 08:48:49;;;;;;;1999.90;999.90;;;17.10;99.90;;;;;;5146402;27;20137;-92
2022/10/31 08:51:15;;;;;;;1999.90;999.90;;;17.20;99.90;;;;;;5154256;27;20402;-92
2022/10/31 08:53:41;;;;;;;1999.90;999.90;;;17.20;99.90;;;;;;5118016;27;20043;-92
2022/10/31 08:56:07;;;;;;;1999.90;999.90;;;17.20;99.90;;;;;;5115696;27;20062;-92
2022/10/31 08:58:32;;;;;;;1999.90;999.90;;;17.20;99.90;;;;;;5132479;27;20035;-91
2022/10/31 09:01:00;;;;;;;1999.90;999.90;;;17.20;99.90;;;;;;5124405;27;20070;-90
2022/10/31 09:03:28;;;;;;;1999.90;999.90;;;17.30;99.90;;;;;;5142700;27;20043;-92
2022/10/31 09:05:58;;;;;;;1999.90;999.90;;;17.30;99.90;;;;;;5114651;27;20039;-94
2022/10/31 09:08:24;;;;;;;1999.90;999.90;;;17.30;99.90;;;;;;5140218;27;20055;-91
2022/10/31 09:10:50;;;;;;;1999.90;999.90;;;17.20;99.90;;;;;;5148767;27;20046;-89
2022/10/31 09:13:19;;;;;;;1999.90;999.90;;;17.20;99.90;;;;;;5128447;27;20055;-91
2022/10/31 09:15:47;;;;;;;1999.90;999.90;;;17.30;99.90;;;;;;5114148;28;20440;-90
2022/10/31 09:18:14;;;;;;;1999.90;999.90;;;17.40;99.90;;;;;;5117505;27;20127;-91
2022/10/31 09:20:42;;;;;;;1999.90;999.90;;;17.50;99.90;;;;;;5125748;27;20465;-91
2022/10/31 09:23:18;;;;;;;1999.90;999.90;;;17.50;99.90;;;;;;5115707;28;20403;-91
2022/10/31 09:25:44;;;;;;;1999.90;999.90;;;17.70;99.90;;;;;;5132951;27;20047;-90
2022/10/31 09:28:13;;;;;;;1999.90;999.90;;;17.90;99.90;;;;;;5133332;27;20499;-90
2022/10/31 09:30:39;;;;;;;1999.90;999.90;;;18.00;29.00;;;;;;5114410;28;20039;-90
2022/10/31 09:33:12;;;;;;;1999.90;999.90;;;17.90;1.00;;;;;;5133007;27;20368;-90
2022/10/31 09:35:38;;;;;;;1999.90;999.90;;;17.90;99.90;;;;;;5114054;28;20046;-91
2022/10/31 09:38:24;;;;;;;1999.90;999.90;;;17.90;99.90;;;;;;5115034;28;20493;-91
2022/10/31 09:41:14;;;;;;;1999.90;999.90;;;17.90;98.40;;;;;;5134790;27;20061;-90
2022/10/31 09:44:07;;;;;;;1999.90;999.90;;;17.90;99.90;;;;;;5140099;27;20043;-90
2022/10/31 09:46:58;;;;;;;1999.90;999.90;;;17.90;1.00;;;;;;5114188;28;20047;-90
2022/10/31 09:49:40;;;;;;;1999.90;999.90;;;17.90;99.90;;;;;;5133073;27;20047;-90
2022/10/31 09:52:20;;;;;;;1999.90;999.90;;;17.80;99.90;;;;;;5114519;28;20078;-91
2022/10/31 09:54:55;;;;;;;1999.90;999.90;;;17.80;99.90;;;;;;5114459;28;20553;-91
2022/10/31 09:57:34;;;;;;;1999.90;999.90;;;17.80;99.90;;;;;;5115433;28;20130;-90
2022/10/31 10:00:01;;;;;;;1999.90;999.90;;;17.90;99.90;;;;;;5114657;28;20043;-91
2022/10/31 10:02:38;;;;;;;1999.90;999.90;;;18.00;99.90;;;;;;5098323;28;20050;-91
2022/10/31 10:05:10;;;;;;;1999.90;999.90;;;18.10;99.90;;;;;;5113708;27;20074;-91
2022/10/31 10:07:54;;;;;;;1999.90;999.90;;;18.10;99.90;;;;;;5132866;28;20043;-90
2022/10/31 10:10:49;;;;;;;1999.90;999.90;;;18.20;99.90;;;;;;5098416;28;20069;-92
2022/10/31 10:13:30;;;;;;;1999.90;999.90;;;18.30;99.90;;;;;;5121469;27;20055;-90
2022/10/31 10:16:17;;;;;;;1999.90;999.90;;;18.20;99.90;;;;;;5115379;28;20055;-90
2022/10/31 10:19:01;;;;;;;1999.90;999.90;;;18.20;99.90;;;;;;5143106;27;20046;-90
2022/10/31 10:21:37;;;;;;;1999.90;999.90;;;18.20;99.90;;;;;;5137114;27;20084;-90
2022/10/31 10:24:33;;;;;;;1999.90;999.90;;;18.10;99.90;;;;;;5114865;27;20519;-90
2022/10/31 10:27:19;;;;;;;1999.90;999.90;;;18.10;99.90;;;;;;5114802;28;20088;-89
2022/10/31 10:29:56;;;;;;;1999.90;999.90;;;18.20;99.90;;;;;;5114316;28;20088;-91
2022/10/31 10:32:29;;;;;;;1999.90;999.90;;;18.30;99.90;;;;;;5142095;27;20567;-91
2022/10/31 10:35:05;;;;;;;1999.90;999.90;;;18.30;99.90;;;;;;5135896;27;20055;-90
2022/10/31 10:37:35;;;;;;;1999.90;999.90;;;18.20;99.90;;;;;;5122739;27;20051;-90
2022/10/31 10:40:15;;;;;;;1999.90;999.90;;;18.60;99.90;;;;;;5140141;27;20138;-90
2022/10/31 10:48:47;;;;;;;1999.90;999.90;;;18.40;99.90;;;;;;5158020;27;20049;-91
2022/10/31 10:51:27;;;;;;;1999.90;999.90;;;18.60;99.90;;;;;;5140005;27;20138;-90
2022/10/31 10:54:04;;;;;;;1999.90;999.90;;;18.70;99.90;;;;;;5137591;27;20042;-91
2022/10/31 10:56:46;;;;;;;1999.90;999.90;;;18.90;99.90;;;;;;5102398;27;20387;-91
2022/10/31 10:59:19;;;;;;;1999.90;999.90;;;19.00;99.90;;;;;;5137697;27;20514;-90
2022/10/31 11:01:47;;;;;;;1999.90;999.90;;;19.00;1.00;;;;;;5119915;27;20047;-92
2022/10/31 11:04:33;;;;;;;1999.90;999.90;;;18.90;99.90;;;;;;5137418;27;20550;-91
2022/10/31 11:07:08;;;;;;;1999.90;999.90;;;18.90;99.90;;;;;;5122592;27;20043;-90
2022/10/31 11:09:35;;;;;;;1999.90;999.90;;;18.90;99.90;;;;;;5137054;27;20089;-91
2022/10/31 11:12:19;;;;;;;1999.90;999.90;;;18.90;99.90;;;;;;5131823;27;20103;-91
2022/10/31 11:14:53;;;;;;;1999.90;999.90;;;19.00;99.90;;;;;;5101306;27;20050;-90
2022/10/31 11:17:29;;;;;;;1999.90;999.90;;;19.10;99.90;;;;;;5154733;27;20045;-90
2022/10/31 11:20:35;;;;;;;1999.90;999.90;;;19.10;99.90;;;;;;5138924;27;20144;-91
2022/10/31 11:23:15;;;;;;;1999.90;999.90;;;19.10;39.40;;;;;;5151013;27;20042;-90
2022/10/31 11:25:49;;;;;;;1999.90;999.90;;;19.10;1.00;;;;;;5148995;27;20399;-89
2022/10/31 11:28:15;;;;;;;1999.90;999.90;;;19.20;1.00;;;;;;5139670;27;20059;-90
2022/10/31 11:30:49;;;;;;;1999.90;999.90;;;19.30;1.00;;;;;;5119291;27;20050;-88
2022/10/31 11:33:27;;;;;;;1999.90;999.90;;;19.40;1.00;;;;;;5124979;27;20082;-91
2022/10/31 11:35:54;;;;;;;1999.90;999.90;;;19.50;99.90;;;;;;5119550;27;20487;-90
2022/10/31 11:38:23;;;;;;;1999.90;999.90;;;19.70;99.90;;;;;;5150435;27;20042;-90
2022/10/31 11:40:59;;;;;;;1999.90;999.90;;;19.80;99.90;;;;;;5123442;27;20047;-91
2022/10/31 11:43:25;;;;;;;1999.90;999.90;;;19.90;99.90;;;;;;5140562;27;20154;-90
2022/10/31 11:45:51;;;;;;;1999.90;999.90;;;20.10;88.40;;;;;;5122470;27;20054;-92
2022/10/31 11:48:24;;;;;;;1999.90;999.90;;;20.10;1.00;;;;;;5119742;27;20208;-92
2022/10/31 11:50:54;;;;;;;1999.90;999.90;;;20.10;1.00;;;;;;5155582;27;20046;-92
2022/10/31 11:53:32;;;;;;;1999.90;999.90;;;20.20;99.90;;;;;;5140507;27;20047;-91
2022/10/31 11:56:13;;;;;;;1999.90;999.90;;;20.30;99.90;;;;;;5116794;27;20077;-91
2022/10/31 11:58:40;;;;;;;1999.90;999.90;;;20.30;99.90;;;;;;5137731;27;20043;-91
2022/10/31 12:01:06;;;;;;;1999.90;999.90;;;20.30;99.90;;;;;;5122044;27;20046;-93
2022/10/31 12:03:38;;;;;;;1999.90;999.90;;;20.30;87.00;;;;;;5124723;27;20051;-91
2022/10/31 12:06:17;;;;;;;1999.90;999.90;;;20.30;1.00;;;;;;5104659;27;20629;-91
2022/10/31 12:08:44;;;;;;;1999.90;999.90;;;20.30;1.00;;;;;;5121524;27;20054;-92
2022/10/31 12:11:28;;;;;;;1999.90;999.90;;;20.30;9.10;;;;;;5112461;27;20070;-90
2022/10/31 12:14:17;;;;;;;1999.90;999.90;;;20.20;1.00;;;;;;5145245;27;20051;-91
2022/10/31 12:17:04;;;;;;;1999.90;999.90;;;20.30;1.00;;;;;;5145711;27;20399;-90
2022/10/31 12:19:53;;;;;;;1999.90;999.90;;;20.30;1.00;;;;;;5111498;27;20061;-89
2022/10/31 12:22:22;;;;;;;1999.90;999.90;;;20.30;1.00;;;;;;5131725;27;20074;-91
2022/10/31 12:25:03;;;;;;;1999.90;999.90;;;20.30;1.00;;;;;;5105432;27;20567;-91